createdAt,value
2023-01-09T00:00:09.427Z,45.53
2023-01-09T00:02:59.812Z,39.97
2023-01-09T00:05:28.475Z,40.35
2023-01-09T00:07:57.334Z,40.40
2023-01-09T00:10:26.067Z,39.35
2023-01-09T00:12:54.905Z,41.80
2023-01-09T00:15:23.391Z,43.67
2023-01-09T00:17:52.138Z,40.85
2023-01-09T00:20:22.050Z,38.92
2023-01-09T00:22:50.744Z,38.30
2023-01-09T00:25:19.358Z,39.13
2023-01-09T00:27:48.007Z,42.33
2023-01-09T00:30:16.607Z,41.50
2023-01-09T00:32:45.205Z,38.00
2023-01-09T00:35:16.483Z,38.60
2023-01-09T00:37:46.989Z,41.83
2023-01-09T00:40:17.115Z,41.22
2023-01-09T00:42:48.665Z,40.83
2023-01-09T00:45:20.250Z,38.67
2023-01-09T00:47:50.222Z,39.55
2023-01-09T00:50:21.803Z,40.13
2023-01-09T00:52:52.438Z,40.83
2023-01-09T00:55:21.178Z,43.92
2023-01-09T00:57:50.126Z,41.45
2023-01-09T01:00:19.716Z,39.58
2023-01-09T01:02:48.457Z,40.65
2023-01-09T01:05:34.511Z,45.85
2023-01-09T01:08:04.841Z,42.10
2023-01-09T01:10:33.269Z,42.05
2023-01-09T01:13:02.041Z,39.55
2023-01-09T01:15:31.433Z,39.53
2023-01-09T01:18:00.141Z,41.90
2023-01-09T01:20:28.630Z,38.50
2023-01-09T01:22:57.259Z,39.97
2023-01-09T01:25:27.170Z,37.33
2023-01-09T01:27:55.763Z,37.42
2023-01-09T01:30:24.218Z,39.63
2023-01-09T01:32:52.967Z,40.55
2023-01-09T01:35:21.256Z,40.88
2023-01-09T01:37:50.330Z,37.95
2023-01-09T01:40:18.709Z,40.20
2023-01-09T01:42:49.518Z,39.70
2023-01-09T01:45:19.856Z,38.80
2023-01-09T01:48:00.121Z,41.33
2023-01-09T01:50:32.724Z,42.85
2023-01-09T01:53:08.162Z,43.33
2023-01-09T01:55:38.156Z,41.40
2023-01-09T01:58:11.696Z,43.47
2023-01-09T02:00:43.642Z,46.50
2023-01-09T02:03:14.641Z,44.92
2023-01-09T02:05:42.964Z,42.70
2023-01-09T02:08:12.775Z,46.83
2023-01-09T02:10:42.267Z,43.45
2023-01-09T02:13:12.889Z,45.30
2023-01-09T02:15:49.673Z,46.92
2023-01-09T02:18:33.410Z,41.53
2023-01-09T02:21:04.711Z,44.05
2023-01-09T02:26:36.336Z,40.25
2023-01-09T02:29:33.085Z,46.72
2023-01-09T02:32:06.274Z,47.20
2023-01-09T02:34:41.402Z,48.83
2023-01-09T02:37:13.771Z,45.78
2023-01-09T02:39:47.480Z,49.90
2023-01-09T02:42:19.693Z,47.88
2023-01-09T02:44:48.433Z,49.38
2023-01-09T02:47:41.241Z,52.63
2023-01-09T02:50:13.415Z,50.05
2023-01-09T02:53:02.953Z,48.30
2023-01-09T02:55:41.444Z,50.13
2023-01-09T02:58:12.744Z,50.08
2023-01-09T03:00:48.508Z,52.20
2023-01-09T03:03:25.387Z,53.25
2023-01-09T03:05:57.324Z,49.08
2023-01-09T03:08:27.917Z,54.08
2023-01-09T03:10:59.419Z,55.05
2023-01-09T03:13:31.221Z,52.10
2023-01-09T03:16:02.435Z,56.88
2023-01-09T03:18:33.415Z,62.33
2023-01-09T03:21:02.482Z,59.47
2023-01-09T03:23:46.947Z,61.38
2023-01-09T03:26:15.697Z,58.35
2023-01-09T03:28:44.413Z,56.55
2023-01-09T03:31:13.024Z,64.15
2023-01-09T03:33:42.989Z,64.22
2023-01-09T03:36:12.931Z,66.25
2023-01-09T03:38:41.692Z,66.32
2023-01-09T03:41:10.399Z,64.30
2023-01-09T03:43:38.721Z,64.57
2023-01-09T03:46:07.532Z,62.45
2023-01-09T03:48:35.807Z,69.82
2023-01-09T03:51:05.864Z,68.57
2023-01-09T03:53:34.207Z,67.47
2023-01-09T03:56:02.820Z,67.40
2023-01-09T03:58:31.165Z,71.30
2023-01-09T04:01:00.885Z,70.60
2023-01-09T04:03:29.750Z,69.38
2023-01-09T04:05:58.441Z,67.95
2023-01-09T04:08:28.204Z,70.43
2023-01-09T04:10:56.793Z,73.68
2023-01-09T04:13:25.233Z,72.00
2023-01-09T04:15:53.839Z,76.22
2023-01-09T04:18:22.104Z,68.72
2023-01-09T04:20:50.819Z,74.43
2023-01-09T04:23:19.103Z,72.95
2023-01-09T04:25:49.165Z,73.18
2023-01-09T04:28:17.472Z,72.68
2023-01-09T04:30:46.551Z,78.22
2023-01-09T04:33:15.281Z,70.32
2023-01-09T04:35:43.901Z,76.05
2023-01-09T04:38:12.454Z,89.38
2023-01-09T04:40:41.065Z,85.47
2023-01-09T04:43:10.787Z,92.85
2023-01-09T04:45:39.450Z,80.57
2023-01-09T04:48:08.325Z,78.97
2023-01-09T04:50:37.046Z,67.57
2023-01-09T04:53:05.902Z,77.43
2023-01-09T04:55:35.895Z,82.88
2023-01-09T04:58:04.139Z,81.22
2023-01-09T05:00:34.436Z,92.35
2023-01-09T05:03:03.171Z,70.82
2023-01-09T05:05:31.845Z,83.97
2023-01-09T05:08:00.093Z,81.47
2023-01-09T05:10:28.906Z,73.50
2023-01-09T05:12:57.305Z,70.53
2023-01-09T05:15:28.386Z,79.90
2023-01-09T05:17:58.178Z,77.95
2023-01-09T05:20:26.967Z,77.70
2023-01-09T05:22:55.280Z,78.00
2023-01-09T05:25:24.021Z,81.35
2023-01-09T05:27:52.333Z,69.07
2023-01-09T05:30:21.800Z,69.80
2023-01-09T05:32:50.112Z,72.50
2023-01-09T05:35:20.343Z,73.70
2023-01-09T05:37:48.746Z,75.57
2023-01-09T05:40:17.627Z,74.75
2023-01-09T05:42:46.403Z,73.85
2023-01-09T05:45:19.027Z,69.95
2023-01-09T05:47:47.670Z,78.18
2023-01-09T05:50:16.567Z,65.25
2023-01-09T05:52:46.407Z,72.30
2023-01-09T05:55:15.158Z,67.18
2023-01-09T05:57:43.524Z,75.70
2023-01-09T06:00:13.451Z,67.97
2023-01-09T06:02:42.057Z,69.63
2023-01-09T06:05:11.358Z,69.97
2023-01-09T06:07:40.901Z,58.08
2023-01-09T06:10:13.911Z,58.35
2023-01-09T06:12:44.869Z,63.13
2023-01-09T06:17:44.436Z,59.85
2023-01-09T06:20:13.512Z,54.22
2023-01-09T06:22:41.894Z,60.92
2023-01-09T06:25:12.857Z,56.80
2023-01-09T06:27:41.409Z,58.58
2023-01-09T06:30:11.527Z,49.30
2023-01-09T06:32:40.009Z,51.63
2023-01-09T06:35:09.420Z,51.65
2023-01-09T06:37:38.369Z,55.45
2023-01-09T06:40:09.066Z,47.50
2023-01-09T06:42:39.288Z,54.33
2023-01-09T06:45:09.411Z,48.40
2023-01-09T06:47:38.275Z,48.83
2023-01-09T06:50:08.083Z,48.28
2023-01-09T06:52:37.656Z,45.42
2023-01-09T06:55:07.704Z,48.47
2023-01-09T06:57:36.320Z,48.83
2023-01-09T07:00:08.167Z,46.28
2023-01-09T07:02:36.903Z,43.80
2023-01-09T07:05:08.725Z,44.88
2023-01-09T07:10:06.722Z,46.35
2023-01-09T07:12:35.330Z,45.05
2023-01-09T07:15:04.212Z,44.35
2023-01-09T07:17:34.351Z,51.92
2023-01-09T07:20:03.506Z,47.47
2023-01-09T07:22:32.243Z,46.95
2023-01-09T07:25:01.136Z,41.90
2023-01-09T07:27:29.947Z,40.53
2023-01-09T07:29:59.297Z,38.90
2023-01-09T07:32:28.704Z,42.70
2023-01-09T07:34:59.557Z,40.80
2023-01-09T07:37:28.761Z,51.78
2023-01-09T07:39:57.692Z,45.78
2023-01-09T07:42:26.599Z,67.65
2023-01-09T07:44:56.337Z,40.65
2023-01-09T07:47:25.311Z,45.25
2023-01-09T07:49:54.291Z,43.92
2023-01-09T07:52:24.336Z,45.13
2023-01-09T07:54:53.234Z,42.30
2023-01-09T07:57:22.317Z,43.03
2023-01-09T07:59:51.210Z,43.15
2023-01-09T08:02:20.021Z,45.10
2023-01-09T08:04:48.986Z,40.15
2023-01-09T08:07:17.656Z,41.75
2023-01-09T08:09:48.698Z,47.63
2023-01-09T08:12:17.519Z,47.87
2023-01-09T08:14:46.539Z,57.80
2023-01-09T08:17:15.981Z,39.20
2023-01-09T08:19:45.275Z,44.65
2023-01-09T08:22:14.183Z,38.30
2023-01-09T08:24:43.093Z,42.10
2023-01-09T08:27:12.987Z,48.67
2023-01-09T08:29:41.918Z,51.87
2023-01-09T08:32:11.203Z,52.40
2023-01-09T08:34:40.704Z,64.28
2023-01-09T08:37:09.326Z,61.53
2023-01-09T08:39:38.494Z,58.10
2023-01-09T08:42:24.938Z,65.47
2023-01-09T08:45:13.258Z,57.30
2023-01-09T08:47:42.112Z,57.78
2023-01-09T08:50:12.027Z,56.33
2023-01-09T08:52:41.086Z,74.75
2023-01-09T08:55:11.068Z,88.00
2023-01-09T08:57:39.774Z,60.70
2023-01-09T09:00:11.999Z,85.35
2023-01-09T09:02:41.133Z,69.65
2023-01-09T09:05:11.549Z,45.38
2023-01-09T09:07:40.254Z,58.45
2023-01-09T09:10:11.134Z,48.97
2023-01-09T09:12:39.966Z,53.80
2023-01-09T09:15:24.563Z,54.85
2023-01-09T09:17:55.636Z,49.85
2023-01-09T09:20:26.117Z,50.38
2023-01-09T09:22:54.980Z,55.85
2023-01-09T09:25:25.335Z,58.75
2023-01-09T09:27:58.170Z,56.15
2023-01-09T09:30:33.914Z,53.47
2023-01-09T09:33:05.163Z,42.38
2023-01-09T09:35:34.746Z,57.55
2023-01-09T09:38:06.374Z,59.03
2023-01-09T09:41:35.780Z,56.13
2023-01-09T09:44:35.582Z,56.53
2023-01-09T09:47:12.138Z,54.35
2023-01-09T09:49:47.420Z,35.55
2023-01-09T09:52:21.724Z,43.40
2023-01-09T09:54:52.779Z,38.95
2023-01-09T09:57:27.060Z,43.42
2023-01-09T09:59:55.882Z,26.65
2023-01-09T10:02:30.913Z,35.20
2023-01-09T10:05:03.129Z,28.40
2023-01-09T10:07:36.689Z,21.52
2023-01-09T10:10:08.148Z,27.45
2023-01-09T10:12:47.837Z,18.52
2023-01-09T10:15:19.542Z,20.30
2023-01-09T10:18:05.399Z,19.98
2023-01-09T10:20:58.824Z,13.20
2023-01-09T10:23:46.021Z,12.75
2023-01-09T10:26:23.465Z,10.73
2023-01-09T10:29:11.931Z,14.13
2023-01-09T10:31:51.664Z,10.93
2023-01-09T10:34:39.602Z,7.38
2023-01-09T10:37:12.241Z,7.63
2023-01-09T10:39:44.094Z,7.63
2023-01-09T10:44:50.406Z,9.38
2023-01-09T10:47:24.010Z,6.28
2023-01-09T10:49:59.547Z,8.35
2023-01-09T10:52:39.420Z,7.38
2023-01-09T10:55:19.678Z,8.88
2023-01-09T10:57:51.641Z,9.77
2023-01-09T11:00:23.729Z,8.65
2023-01-09T11:02:55.030Z,11.50
2023-01-09T11:05:32.729Z,8.75
2023-01-09T11:08:08.272Z,8.93
2023-01-09T11:10:49.101Z,9.55
2023-01-09T11:13:23.852Z,11.07
2023-01-09T11:16:08.111Z,9.70
2023-01-09T11:26:25.067Z,6.03
2023-01-09T11:35:11.068Z,7.45
2023-01-09T11:37:42.065Z,7.80
2023-01-09T11:40:21.333Z,7.43
2023-01-09T11:53:32.552Z,10.68
2023-01-09T11:59:44.883Z,6.72
2023-01-09T12:03:14.739Z,12.25
2023-01-09T12:05:50.272Z,8.30
2023-01-09T12:08:39.808Z,8.77
2023-01-09T12:11:29.597Z,9.55
2023-01-09T12:14:08.543Z,8.60
2023-01-09T12:16:48.362Z,7.00
2023-01-09T12:19:42.067Z,8.90
2023-01-09T12:29:02.446Z,13.32
2023-01-09T12:31:57.783Z,11.00
2023-01-09T12:34:43.208Z,9.07
2023-01-09T12:38:04.605Z,11.52
2023-01-09T12:40:59.975Z,12.55
2023-01-09T12:43:53.703Z,15.52
2023-01-09T12:46:38.176Z,11.23
2023-01-09T12:49:24.721Z,12.80
2023-01-09T12:52:03.483Z,16.48
2023-01-09T12:54:36.941Z,12.82
2023-01-09T12:57:15.242Z,15.50
2023-01-09T12:59:46.993Z,12.90
2023-01-09T13:02:25.679Z,13.80
2023-01-09T13:04:59.045Z,10.70
2023-01-09T13:07:32.489Z,10.88
2023-01-09T13:10:06.891Z,11.68
2023-01-09T13:12:42.419Z,9.38
2023-01-09T13:15:40.120Z,9.63
2023-01-09T13:21:08.648Z,11.18
2023-01-09T13:23:43.999Z,10.38
2023-01-09T13:26:16.896Z,11.95
2023-01-09T13:28:50.097Z,14.35
2023-01-09T13:31:29.060Z,14.57
2023-01-09T13:34:00.472Z,12.85
2023-01-09T13:36:30.880Z,12.25
2023-01-09T13:39:00.827Z,11.43
2023-01-09T13:41:47.272Z,11.18
2023-01-09T13:44:25.747Z,11.23
2023-01-09T13:46:57.923Z,11.85
2023-01-09T13:49:50.821Z,10.98
2023-01-09T13:52:34.182Z,13.10
2023-01-09T13:55:25.918Z,11.82
2023-01-09T13:58:22.833Z,14.30
2023-01-09T14:01:25.223Z,10.38
2023-01-09T14:04:27.510Z,10.30
2023-01-09T14:07:17.220Z,11.43
2023-01-09T14:09:49.131Z,9.65
2023-01-09T14:12:20.945Z,9.55
2023-01-09T14:14:50.636Z,12.23
2023-01-09T14:17:28.509Z,10.35
2023-01-09T14:19:58.854Z,10.30
2023-01-09T14:22:38.055Z,9.30
2023-01-09T14:28:23.502Z,16.35
2023-01-09T14:31:08.175Z,19.58
2023-01-09T14:33:38.552Z,17.25
2023-01-09T14:36:14.570Z,19.95
2023-01-09T14:38:47.708Z,14.20
2023-01-09T14:41:42.396Z,13.25
2023-01-09T14:44:24.857Z,17.33
2023-01-09T14:46:54.330Z,15.77
2023-01-09T14:49:32.154Z,13.35
2023-01-09T14:52:02.646Z,18.85
2023-01-09T14:54:36.451Z,18.73
2023-01-09T14:57:05.321Z,12.85
2023-01-09T14:59:35.031Z,19.58
2023-01-09T15:02:03.687Z,17.65
2023-01-09T15:04:35.170Z,17.52
2023-01-09T15:07:04.799Z,15.27
2023-01-09T15:09:40.644Z,16.00
2023-01-09T15:12:11.277Z,14.10
2023-01-09T15:14:41.834Z,15.13
2023-01-09T15:17:18.689Z,15.90
2023-01-09T15:19:48.793Z,17.20
2023-01-09T15:22:26.250Z,18.42
2023-01-09T15:24:56.733Z,17.55
2023-01-09T15:27:26.334Z,17.00
2023-01-09T15:29:55.490Z,16.05
2023-01-09T15:32:26.867Z,18.40
2023-01-09T15:34:56.669Z,15.43
2023-01-09T15:37:28.560Z,18.30
2023-01-09T15:39:59.750Z,44.22
2023-01-09T15:42:48.786Z,21.80
2023-01-09T15:45:27.037Z,42.10
2023-01-09T15:47:56.464Z,24.33
2023-01-09T15:50:29.297Z,24.85
2023-01-09T15:52:58.564Z,29.17
2023-01-09T15:55:36.593Z,24.83
2023-01-09T15:58:06.416Z,22.02
2023-01-09T16:00:44.235Z,27.08
2023-01-09T16:03:22.271Z,27.25
2023-01-09T16:05:56.481Z,23.90
2023-01-09T16:08:36.587Z,23.88
2023-01-09T16:11:10.867Z,24.87
2023-01-09T16:13:44.808Z,25.48
2023-01-09T16:16:16.415Z,22.55
2023-01-09T16:18:53.068Z,22.98
2023-01-09T16:21:35.986Z,21.38
2023-01-09T16:24:21.552Z,22.60
2023-01-09T16:26:57.269Z,22.90
2023-01-09T16:29:36.387Z,21.25
2023-01-09T16:32:07.676Z,26.05
2023-01-09T16:34:37.453Z,22.48
2023-01-09T16:37:12.757Z,21.85
2023-01-09T16:39:41.547Z,20.95
2023-01-09T16:42:29.916Z,24.40
2023-01-09T16:44:58.584Z,22.63
2023-01-09T16:47:28.201Z,27.70
2023-01-09T16:49:57.843Z,23.48
2023-01-09T16:52:27.568Z,20.70
2023-01-09T16:55:21.604Z,25.60
2023-01-09T16:57:57.673Z,26.42
2023-01-09T17:00:30.342Z,32.22
2023-01-09T17:03:01.281Z,27.52
2023-01-09T17:05:30.748Z,29.63
2023-01-09T17:08:01.426Z,31.30
2023-01-09T17:10:30.983Z,25.52
2023-01-09T17:13:06.367Z,25.98
2023-01-09T17:15:35.820Z,26.65
2023-01-09T17:18:08.639Z,31.27
2023-01-09T17:20:40.340Z,23.80
2023-01-09T17:23:10.357Z,22.05
2023-01-09T17:25:56.505Z,20.02
2023-01-09T17:28:33.913Z,24.27
2023-01-09T17:31:03.991Z,21.95
2023-01-09T17:33:33.809Z,24.75
2023-01-09T17:36:03.297Z,22.77
2023-01-09T17:38:32.676Z,21.80
2023-01-09T17:41:01.405Z,26.40
2023-01-09T17:43:33.437Z,22.38
2023-01-09T17:46:04.872Z,24.88
2023-01-09T17:48:34.430Z,24.83
2023-01-09T17:51:06.349Z,24.70
2023-01-09T17:53:37.833Z,28.55
2023-01-09T17:56:08.073Z,24.55
2023-01-09T17:58:39.536Z,27.48
2023-01-09T18:01:08.831Z,28.40
2023-01-09T18:03:38.243Z,38.28
2023-01-09T18:06:07.999Z,49.20
2023-01-09T18:08:37.702Z,57.92
2023-01-09T18:11:08.054Z,37.17
2023-01-09T18:13:42.108Z,27.50
2023-01-09T18:16:12.321Z,28.70
2023-01-09T18:18:41.624Z,29.65
2023-01-09T18:21:13.030Z,30.90
2023-01-09T18:23:45.281Z,29.75
2023-01-09T18:26:20.584Z,27.80
2023-01-09T18:28:53.307Z,30.20
2023-01-09T18:31:24.398Z,24.65
2023-01-09T18:33:55.274Z,24.45
2023-01-09T18:36:33.077Z,25.80
2023-01-09T18:39:04.808Z,29.13
2023-01-09T18:41:34.169Z,36.05
2023-01-09T18:44:06.343Z,32.25
2023-01-09T18:46:41.117Z,27.83
2023-01-09T18:49:11.701Z,26.67
2023-01-09T18:51:43.604Z,26.95
2023-01-09T18:54:14.129Z,26.90
2023-01-09T18:56:42.701Z,28.73
2023-01-09T18:59:40.252Z,24.40
2023-01-09T19:08:06.193Z,25.42
2023-01-09T19:11:07.244Z,26.75
2023-01-09T19:13:39.043Z,32.83
2023-01-09T19:18:44.136Z,27.38
2023-01-09T19:21:14.676Z,28.00
2023-01-09T19:23:49.734Z,23.88
2023-01-09T19:26:22.872Z,25.17
2023-01-09T19:28:55.682Z,26.52
2023-01-09T19:31:28.727Z,28.02
2023-01-09T19:33:58.865Z,30.77
2023-01-09T19:36:32.213Z,31.20
2023-01-09T19:39:19.293Z,37.60
2023-01-09T19:41:48.437Z,34.85
2023-01-09T19:44:19.486Z,37.90
2023-01-09T19:46:49.789Z,41.83
2023-01-09T19:49:20.135Z,41.55
2023-01-09T19:51:50.610Z,32.55
2023-01-09T19:54:21.585Z,26.85
2023-01-09T19:56:50.306Z,25.48
2023-01-09T19:59:20.164Z,33.70
2023-01-09T20:01:50.274Z,31.75
2023-01-09T20:04:20.446Z,34.43
2023-01-09T20:06:52.832Z,50.42
2023-01-09T20:09:22.883Z,44.20
2023-01-09T20:11:52.256Z,45.58
2023-01-09T20:14:22.823Z,45.53
2023-01-09T20:16:54.419Z,42.63
2023-01-09T20:19:27.542Z,37.22
2023-01-09T20:21:56.500Z,53.20
2023-01-09T20:24:25.800Z,49.47
2023-01-09T20:26:54.459Z,48.95
2023-01-09T20:29:24.869Z,51.33
2023-01-09T20:31:56.754Z,60.38
2023-01-09T20:34:28.693Z,56.80
2023-01-09T20:36:57.407Z,59.00
2023-01-09T20:39:26.579Z,61.35
2023-01-09T20:41:55.280Z,57.03
2023-01-09T20:44:24.945Z,68.70
2023-01-09T20:46:55.286Z,62.20
2023-01-09T20:49:25.207Z,56.40
2023-01-09T20:51:56.381Z,69.05
2023-01-09T20:54:37.668Z,71.32
2023-01-09T20:57:07.805Z,47.95
2023-01-09T20:59:37.233Z,59.63
2023-01-09T21:02:07.823Z,48.63
2023-01-09T21:04:37.502Z,44.88
2023-01-09T21:07:07.326Z,37.60
2023-01-09T21:09:37.420Z,43.00
2023-01-09T21:12:26.879Z,44.38
2023-01-09T21:14:57.953Z,43.90
2023-01-09T21:17:28.368Z,42.47
2023-01-09T21:19:58.352Z,42.05
2023-01-09T21:22:27.149Z,42.55
2023-01-09T21:24:59.437Z,38.83
2023-01-09T21:27:29.719Z,45.83
2023-01-09T21:29:59.080Z,41.97
2023-01-09T21:32:29.177Z,42.55
2023-01-09T21:35:03.372Z,43.75
2023-01-09T21:37:32.664Z,44.05
2023-01-09T21:40:02.754Z,43.10
2023-01-09T21:42:48.454Z,39.80
2023-01-09T21:45:36.347Z,44.17
2023-01-09T21:48:07.649Z,43.70
2023-01-09T21:50:36.556Z,43.78
2023-01-09T21:53:05.359Z,44.75
2023-01-09T21:55:34.510Z,43.47
2023-01-09T21:58:03.616Z,41.80
2023-01-09T22:00:32.906Z,40.92
2023-01-09T22:03:01.492Z,39.00
2023-01-09T22:05:32.227Z,37.70
2023-01-09T22:08:00.761Z,35.58
2023-01-09T22:10:29.605Z,34.92
2023-01-09T22:13:17.905Z,33.33
2023-01-09T22:15:48.233Z,33.67
2023-01-09T22:18:16.710Z,34.60
2023-01-09T22:20:47.666Z,31.90
2023-01-09T22:23:16.268Z,29.48
2023-01-09T22:25:45.361Z,28.48
2023-01-09T22:28:13.693Z,29.48
2023-01-09T22:30:43.388Z,26.35
2023-01-09T22:33:12.465Z,28.30
2023-01-09T22:35:45.029Z,29.70
2023-01-09T22:38:15.071Z,28.52
2023-01-09T22:40:44.209Z,26.17
2023-01-09T22:43:16.201Z,33.28
2023-01-09T22:45:45.114Z,29.73
2023-01-09T22:48:13.719Z,27.08
2023-01-09T22:50:42.578Z,33.60
2023-01-09T22:53:11.675Z,28.40
2023-01-09T22:55:41.890Z,28.67
2023-01-09T22:58:10.699Z,25.77
2023-01-09T23:00:39.369Z,27.63
2023-01-09T23:03:07.756Z,26.50
2023-01-09T23:05:36.388Z,30.05
2023-01-09T23:08:04.833Z,28.63
2023-01-09T23:10:33.367Z,30.27
2023-01-09T23:13:03.393Z,30.45
2023-01-09T23:15:32.648Z,31.15
2023-01-09T23:18:00.963Z,31.88
2023-01-09T23:20:29.706Z,30.85
2023-01-09T23:22:59.035Z,28.73
2023-01-09T23:25:27.637Z,37.38
2023-01-09T23:27:55.976Z,31.58
2023-01-09T23:30:26.178Z,36.53
2023-01-09T23:32:54.339Z,33.47
2023-01-09T23:35:22.920Z,29.33
2023-01-09T23:37:51.558Z,29.92
2023-01-09T23:40:20.552Z,29.48
2023-01-09T23:43:06.323Z,31.02
2023-01-09T23:45:36.688Z,31.45
2023-01-09T23:48:05.583Z,29.20
2023-01-09T23:50:34.303Z,23.58
2023-01-09T23:53:02.691Z,24.23
2023-01-09T23:55:31.717Z,24.10
2023-01-09T23:58:00.125Z,22.00
